createdAt,value
2018-07-28T00:05:00.773Z,0
2018-07-28T00:09:59.513Z,0
2018-07-28T00:14:59.557Z,0
2018-07-28T00:19:59.636Z,0
2018-07-28T00:24:59.286Z,0
2018-07-28T00:29:59.504Z,0
2018-07-28T00:34:59.046Z,0
2018-07-28T00:39:59.395Z,0
2018-07-28T00:45:02.679Z,0
2018-07-28T00:49:58.999Z,0
2018-07-28T00:54:59.131Z,0
2018-07-28T00:59:59.138Z,0
2018-07-28T01:04:59.509Z,0
2018-07-28T01:09:59.352Z,0
2018-07-28T01:14:59.477Z,0
2018-07-28T01:19:59.647Z,0
2018-07-28T01:25:05.064Z,0
2018-07-28T01:29:59.297Z,0
2018-07-28T01:34:59.492Z,0
2018-07-28T01:39:59.289Z,0
2018-07-28T01:44:59.709Z,0
2018-07-28T01:49:59.287Z,0
2018-07-28T01:55:11.087Z,0
2018-07-28T02:00:01.614Z,0
2018-07-28T02:05:00.864Z,0
2018-07-28T02:09:59.264Z,0
2018-07-28T02:14:59.199Z,0
2018-07-28T02:19:59.247Z,0
2018-07-28T02:24:59.266Z,0
2018-07-28T02:29:58.966Z,0
2018-07-28T02:34:59.256Z,0
2018-07-28T02:39:59.156Z,0
2018-07-28T02:44:59.015Z,0
2018-07-28T02:49:58.909Z,0
2018-07-28T02:54:59.007Z,0
2018-07-28T02:59:59.375Z,0
2018-07-28T03:04:58.784Z,0
2018-07-28T03:09:58.897Z,0
2018-07-28T03:14:58.891Z,0
2018-07-28T03:19:58.986Z,0
2018-07-28T03:24:59.196Z,0
2018-07-28T03:29:58.777Z,0
2018-07-28T03:34:59.100Z,0
2018-07-28T03:39:59.105Z,0
2018-07-28T03:44:59.141Z,0
2018-07-28T03:49:59.078Z,0
2018-07-28T03:54:59.019Z,0
2018-07-28T03:59:59.730Z,0.8
2018-07-28T04:04:58.890Z,1.7
2018-07-28T04:09:58.803Z,1.7
2018-07-28T04:14:58.676Z,3.3
2018-07-28T04:19:58.639Z,4.2
2018-07-28T04:24:58.692Z,5
2018-07-28T04:29:58.918Z,5.8
2018-07-28T04:34:58.891Z,6.7
2018-07-28T04:39:59.109Z,9.2
2018-07-28T04:44:58.693Z,13.3
2018-07-28T04:49:58.788Z,17.5
2018-07-28T04:54:58.788Z,22.5
2018-07-28T04:59:58.658Z,34.2
2018-07-28T05:04:58.670Z,45.8
2018-07-28T05:09:58.689Z,50
2018-07-28T05:14:58.638Z,57.5
2018-07-28T05:19:58.894Z,63.3
2018-07-28T05:24:58.741Z,59.2
2018-07-28T05:29:58.762Z,78.3
2018-07-28T05:34:58.549Z,70.8
2018-07-28T05:39:58.589Z,55.8
2018-07-28T05:44:58.696Z,41.7
2018-07-28T05:49:58.625Z,40
2018-07-28T05:54:58.919Z,41.7
2018-07-28T05:59:58.882Z,49.2
2018-07-28T06:04:58.527Z,53.3
2018-07-28T06:09:58.769Z,50.8
2018-07-28T06:14:58.640Z,55.8
2018-07-28T06:19:58.486Z,54.2
2018-07-28T06:24:58.840Z,35.8
2018-07-28T06:29:58.622Z,30.8
2018-07-28T06:34:58.797Z,19.2
2018-07-28T06:39:58.782Z,16.7
2018-07-28T06:44:58.647Z,15.8
2018-07-28T06:49:58.567Z,15.8
2018-07-28T06:54:58.738Z,13.3
2018-07-28T06:59:58.760Z,18.3
2018-07-28T07:04:58.506Z,24.2
2018-07-28T07:09:58.436Z,34.2
2018-07-28T07:14:58.673Z,45.8
2018-07-28T07:19:58.579Z,56.7
2018-07-28T07:24:58.484Z,59.2
2018-07-28T07:29:58.371Z,55
2018-07-28T07:34:58.389Z,42.5
2018-07-28T07:39:58.359Z,34.2
2018-07-28T07:44:58.447Z,61.7
2018-07-28T07:49:58.862Z,101.7
2018-07-28T07:54:58.410Z,128.3
2018-07-28T07:59:58.543Z,127.5
2018-07-28T08:04:58.590Z,100
2018-07-28T08:09:58.589Z,108.3
2018-07-28T08:14:58.509Z,120.8
2018-07-28T08:19:58.595Z,78.3
2018-07-28T08:24:58.434Z,65
2018-07-28T08:29:58.269Z,50.8
2018-07-28T08:34:58.498Z,59.2
2018-07-28T08:39:58.434Z,77.5
2018-07-28T08:44:58.349Z,98.3
2018-07-28T08:49:58.453Z,90
2018-07-28T08:54:58.301Z,67.5
2018-07-28T08:59:58.636Z,49.2
2018-07-28T09:04:58.658Z,28.3
2018-07-28T09:09:58.505Z,43.3
2018-07-28T09:14:58.521Z,72.5
2018-07-28T09:19:58.673Z,122.5
2018-07-28T09:24:58.560Z,153.3
2018-07-28T09:29:58.569Z,195
2018-07-28T09:34:58.505Z,260
2018-07-28T09:39:58.242Z,337.5
2018-07-28T09:44:58.288Z,475
2018-07-28T09:49:58.392Z,265
2018-07-28T09:54:58.345Z,421.7
2018-07-28T09:59:58.208Z,558.3
2018-07-28T10:04:59.738Z,380
2018-07-28T10:09:58.350Z,316.7
2018-07-28T10:14:58.247Z,314.2
2018-07-28T10:19:58.115Z,330.8
2018-07-28T10:24:58.501Z,160.8
2018-07-28T10:29:58.393Z,195.8
2018-07-28T10:34:58.303Z,166.7
2018-07-28T10:39:58.369Z,117.5
2018-07-28T10:44:58.136Z,153.3
2018-07-28T10:49:58.385Z,174.2
2018-07-28T10:54:58.122Z,380
2018-07-28T10:59:58.366Z,195.8
2018-07-28T11:04:58.278Z,97.5
2018-07-28T11:09:58.079Z,204.2
2018-07-28T11:14:58.088Z,329.2
2018-07-28T11:19:58.369Z,569.2
2018-07-28T11:24:58.029Z,325.8
2018-07-28T11:29:58.360Z,205.8
2018-07-28T11:34:58.171Z,90
2018-07-28T11:39:58.335Z,380.8
2018-07-28T11:44:58.321Z,790
2018-07-28T11:50:01.108Z,226.7
2018-07-28T11:55:00.559Z,880.8
2018-07-28T12:00:00.504Z,829.2
2018-07-28T12:05:00.474Z,835
2018-07-28T12:10:00.453Z,638.3
2018-07-28T12:15:00.359Z,114.2
2018-07-28T12:20:00.291Z,71.7
2018-07-28T12:25:00.271Z,168.3
2018-07-28T12:30:00.244Z,919.2
2018-07-28T12:35:00.521Z,910
2018-07-28T12:40:00.377Z,915.8
2018-07-28T12:45:00.308Z,816.7
2018-07-28T12:50:00.550Z,784.2
2018-07-28T12:55:00.592Z,890.8
2018-07-28T13:00:00.407Z,950
2018-07-28T13:05:00.436Z,334.2
2018-07-28T13:10:00.302Z,1000.8
2018-07-28T13:15:00.534Z,1055
2018-07-28T13:20:00.170Z,330
2018-07-28T13:25:00.188Z,364.2
2018-07-28T13:30:00.490Z,246.7
2018-07-28T13:35:00.085Z,1150
2018-07-28T13:40:00.179Z,983.3
2018-07-28T13:45:00.423Z,289.2
2018-07-28T13:50:00.333Z,973.3
2018-07-28T13:55:00.101Z,1235.8
2018-07-28T14:00:00.176Z,1226.7
2018-07-28T14:05:00.158Z,1213.3
2018-07-28T14:09:59.961Z,1255.8
2018-07-28T14:15:00.088Z,1140.8
2018-07-28T14:20:00.414Z,1298.3
2018-07-28T14:25:00.153Z,1379.2
2018-07-28T14:30:00.141Z,1334.2
2018-07-28T14:35:00.193Z,1287.5
2018-07-28T14:40:00.307Z,213.3
2018-07-28T14:45:00.198Z,246.7
2018-07-28T14:50:00.365Z,994.2
2018-07-28T14:55:00.484Z,1240
2018-07-28T15:00:00.182Z,1276.7
2018-07-28T15:05:00.191Z,1229.2
2018-07-28T15:10:00.336Z,1250
2018-07-28T15:15:00.304Z,1206.7
2018-07-28T15:19:59.978Z,1186.7
2018-07-28T15:25:00.273Z,1144.2
2018-07-28T15:29:59.966Z,1065.8
2018-07-28T15:35:00.116Z,1057.5
2018-07-28T15:39:59.996Z,278.3
2018-07-28T15:45:00.083Z,948.3
2018-07-28T15:50:00.185Z,981.7
2018-07-28T15:55:00.653Z,161.7
2018-07-28T16:00:00.065Z,381.7
2018-07-28T16:04:59.951Z,269.2
2018-07-28T16:10:00.061Z,213.3
2018-07-28T16:15:00.037Z,182.5
2018-07-28T16:20:00.273Z,158.3
2018-07-28T16:25:00.124Z,133.3
2018-07-28T16:30:00.231Z,112.5
2018-07-28T16:35:00.156Z,100
2018-07-28T16:40:00.023Z,92.5
2018-07-28T16:44:59.975Z,89.2
2018-07-28T16:50:00.024Z,85.8
2018-07-28T16:54:59.924Z,77.5
2018-07-28T17:00:00.039Z,74.2
2018-07-28T17:05:00.139Z,70.8
2018-07-28T17:10:00.350Z,60.8
2018-07-28T17:21:03.111Z,62.5
2018-07-28T17:21:15.448Z,60
2018-07-28T17:24:59.732Z,56.7
2018-07-28T17:29:59.890Z,55.8
2018-07-28T17:34:59.835Z,53.3
2018-07-28T17:39:59.972Z,50
2018-07-28T17:44:59.675Z,51.7
2018-07-28T17:50:00.063Z,49.2
2018-07-28T17:54:59.807Z,47.5
2018-07-28T17:59:59.776Z,45.8
2018-07-28T18:04:59.658Z,43.3
2018-07-28T18:09:59.853Z,40
2018-07-28T18:14:59.927Z,38.3
2018-07-28T18:19:59.844Z,36.7
2018-07-28T18:24:59.834Z,35
2018-07-28T18:30:00.466Z,32.5
2018-07-28T18:34:59.906Z,31.7
2018-07-28T18:40:00.196Z,29.2
2018-07-28T18:44:59.934Z,26.7
2018-07-28T18:49:59.714Z,24.2
2018-07-28T18:54:59.812Z,21.7
2018-07-28T18:59:59.642Z,19.2
2018-07-28T19:04:59.594Z,16.7
2018-07-28T19:09:59.940Z,14.2
2018-07-28T19:14:59.757Z,11.7
2018-07-28T19:19:59.553Z,9.2
2018-07-28T19:24:59.694Z,7.5
2018-07-28T19:29:59.653Z,5
2018-07-28T19:34:59.863Z,3.3
2018-07-28T19:39:59.640Z,1.7
2018-07-28T19:44:59.895Z,0.8
2018-07-28T19:49:59.734Z,0
2018-07-28T19:54:59.935Z,0
2018-07-28T19:59:59.686Z,0
2018-07-28T20:04:59.636Z,0
2018-07-28T20:09:59.576Z,0
2018-07-28T20:14:59.787Z,0
2018-07-28T20:19:59.792Z,0
2018-07-28T20:24:59.593Z,0
2018-07-28T20:29:59.583Z,0
2018-07-28T20:34:59.561Z,0
2018-07-28T20:39:59.937Z,0
2018-07-28T20:44:59.637Z,0
2018-07-28T20:49:59.806Z,0
2018-07-28T20:54:59.934Z,0
2018-07-28T21:00:00.207Z,0
2018-07-28T21:04:59.584Z,0
2018-07-28T21:09:59.685Z,0
2018-07-28T21:14:59.682Z,0
2018-07-28T21:19:59.575Z,0
2018-07-28T21:24:59.582Z,0
2018-07-28T21:29:59.818Z,0
2018-07-28T21:34:59.681Z,0
2018-07-28T21:39:59.620Z,0
2018-07-28T21:44:59.519Z,0
2018-07-28T21:49:59.710Z,0
2018-07-28T21:54:59.533Z,0
2018-07-28T21:59:59.556Z,0
2018-07-28T22:04:59.996Z,0
2018-07-28T22:09:59.567Z,0
2018-07-28T22:14:59.792Z,0
2018-07-28T22:19:59.573Z,0
2018-07-28T22:24:59.761Z,0
2018-07-28T22:29:59.733Z,0
2018-07-28T22:34:59.410Z,0
2018-07-28T22:39:59.426Z,0
2018-07-28T22:44:59.673Z,0
2018-07-28T22:49:59.651Z,0
2018-07-28T22:54:59.349Z,0
2018-07-28T22:59:59.576Z,0
2018-07-28T23:04:59.651Z,0
2018-07-28T23:09:59.665Z,0
2018-07-28T23:14:59.607Z,0
2018-07-28T23:19:59.510Z,0
2018-07-28T23:24:59.672Z,0
2018-07-28T23:29:59.527Z,0
2018-07-28T23:34:59.516Z,0
2018-07-28T23:39:59.235Z,0
2018-07-28T23:44:59.265Z,0
2018-07-28T23:49:59.391Z,0
2018-07-28T23:54:59.216Z,0
2018-07-28T23:59:59.234Z,0
